createdAt,value
2023-03-27T00:00:02.455Z,2.60
2023-03-27T00:02:29.892Z,2.55
2023-03-27T00:07:30.387Z,2.05
2023-03-27T00:09:57.645Z,2.20
2023-03-27T00:14:58.630Z,2.30
2023-03-27T00:17:25.820Z,2.20
2023-03-27T00:20:00.343Z,2.40
2023-03-27T00:22:30.017Z,2.33
2023-03-27T00:25:03.529Z,2.20
2023-03-27T00:27:37.395Z,2.30
2023-03-27T00:30:18.392Z,2.42
2023-03-27T00:32:45.853Z,2.67
2023-03-27T00:35:14.239Z,2.30
2023-03-27T00:37:48.378Z,2.17
2023-03-27T00:40:18.691Z,2.55
2023-03-27T00:42:53.548Z,3.22
2023-03-27T00:45:22.187Z,2.58
2023-03-27T00:48:00.656Z,3.08
2023-03-27T00:50:33.415Z,2.72
2023-03-27T00:53:09.370Z,2.70
2023-03-27T00:55:48.294Z,2.20
2023-03-27T00:58:19.384Z,2.55
2023-03-27T01:00:54.525Z,2.70
2023-03-27T01:03:22.718Z,2.72
2023-03-27T01:06:05.311Z,2.67
2023-03-27T01:08:34.192Z,2.67
2023-03-27T01:11:14.297Z,2.58
2023-03-27T01:13:41.520Z,2.50
2023-03-27T01:16:08.970Z,2.83
2023-03-27T01:19:01.436Z,2.75
2023-03-27T01:21:43.847Z,2.45
2023-03-27T01:24:18.351Z,3.40
2023-03-27T01:26:59.459Z,2.97
2023-03-27T01:29:39.446Z,2.75
2023-03-27T01:32:15.901Z,2.55
2023-03-27T01:35:01.826Z,2.97
2023-03-27T01:37:50.301Z,2.60
2023-03-27T01:40:37.413Z,2.92
2023-03-27T01:43:10.606Z,2.30
2023-03-27T01:45:44.417Z,2.50
2023-03-27T01:48:14.236Z,2.75
2023-03-27T01:50:56.633Z,2.60
2023-03-27T01:53:27.287Z,2.42
2023-03-27T01:56:05.374Z,2.63
2023-03-27T01:58:36.102Z,2.47
2023-03-27T02:01:03.743Z,2.70
2023-03-27T02:03:48.470Z,2.40
2023-03-27T02:06:18.021Z,2.70
2023-03-27T02:09:11.537Z,2.90
2023-03-27T02:11:42.129Z,2.90
2023-03-27T02:14:20.343Z,2.97
2023-03-27T02:16:50.465Z,2.90
2023-03-27T02:19:27.494Z,3.00
2023-03-27T02:21:54.739Z,2.85
2023-03-27T02:27:13.314Z,2.63
2023-03-27T02:29:52.155Z,2.57
2023-03-27T02:32:28.498Z,2.97
2023-03-27T02:35:02.918Z,2.53
2023-03-27T02:37:36.311Z,2.87
2023-03-27T02:40:15.026Z,2.50
2023-03-27T02:42:55.446Z,2.60
2023-03-27T02:45:26.823Z,2.67
2023-03-27T02:48:03.530Z,2.37
2023-03-27T02:50:41.747Z,2.67
2023-03-27T02:53:18.457Z,2.90
2023-03-27T02:55:56.557Z,2.50
2023-03-27T02:58:37.312Z,2.80
2023-03-27T03:01:05.028Z,2.83
2023-03-27T03:03:41.301Z,2.53
2023-03-27T03:06:11.222Z,2.60
2023-03-27T03:08:45.352Z,2.80
2023-03-27T03:11:14.369Z,2.43
2023-03-27T03:13:41.745Z,3.20
2023-03-27T03:16:16.492Z,2.50
2023-03-27T03:18:43.662Z,2.53
2023-03-27T03:21:17.706Z,2.50
2023-03-27T03:23:58.759Z,2.83
2023-03-27T03:26:33.519Z,2.53
2023-03-27T03:29:07.820Z,2.43
2023-03-27T03:31:50.668Z,2.67
2023-03-27T03:34:19.363Z,2.27
2023-03-27T03:36:49.221Z,2.70
2023-03-27T03:39:24.445Z,2.87
2023-03-27T03:41:51.716Z,2.80
2023-03-27T03:46:52.596Z,2.77
2023-03-27T03:49:26.540Z,3.13
2023-03-27T03:52:03.634Z,2.70
2023-03-27T03:54:39.471Z,2.50
2023-03-27T03:57:08.183Z,2.60
2023-03-27T03:59:35.596Z,2.07
2023-03-27T04:04:36.756Z,3.97
2023-03-27T04:09:40.397Z,4.63
2023-03-27T04:12:07.674Z,4.77
2023-03-27T04:17:08.620Z,3.23
2023-03-27T04:22:10.397Z,3.20
2023-03-27T04:24:37.729Z,2.60
2023-03-27T04:27:12.541Z,2.57
2023-03-27T04:29:47.378Z,3.13
2023-03-27T04:32:25.528Z,2.70
2023-03-27T04:34:54.495Z,2.80
2023-03-27T04:37:24.091Z,2.83
2023-03-27T04:39:59.536Z,2.90
2023-03-27T04:42:27.238Z,2.80
2023-03-27T04:45:01.691Z,2.70
2023-03-27T04:47:28.874Z,2.37
2023-03-27T04:52:32.577Z,3.10
2023-03-27T04:55:01.583Z,2.60
2023-03-27T04:57:37.390Z,2.53
2023-03-27T05:00:15.724Z,2.50
2023-03-27T05:02:49.556Z,2.20
2023-03-27T05:05:17.078Z,2.43
2023-03-27T05:07:47.926Z,2.93
2023-03-27T05:10:23.421Z,3.00
2023-03-27T05:12:51.401Z,3.07
2023-03-27T05:15:25.616Z,3.03
2023-03-27T05:17:56.061Z,2.73
2023-03-27T05:20:23.252Z,2.87
2023-03-27T05:23:00.511Z,2.90
2023-03-27T05:25:27.989Z,3.30
2023-03-27T05:28:08.572Z,3.20
2023-03-27T05:30:42.408Z,2.53
2023-03-27T05:33:16.517Z,2.97
2023-03-27T05:35:47.303Z,2.93
2023-03-27T05:38:14.528Z,3.10
2023-03-27T05:40:48.630Z,2.80
2023-03-27T05:43:15.781Z,3.67
2023-03-27T05:45:43.010Z,3.00
2023-03-27T05:50:43.696Z,2.80
2023-03-27T05:53:18.521Z,2.75
2023-03-27T05:55:45.723Z,3.07
2023-03-27T05:58:13.454Z,2.78
2023-03-27T06:00:51.409Z,2.80
2023-03-27T06:05:56.446Z,2.80
2023-03-27T06:08:23.806Z,3.20
2023-03-27T06:13:25.482Z,2.60
2023-03-27T06:15:54.511Z,2.50
2023-03-27T06:18:28.574Z,2.67
2023-03-27T06:20:55.906Z,2.63
2023-03-27T06:23:23.263Z,3.07
2023-03-27T06:25:57.637Z,2.53
2023-03-27T06:28:31.406Z,2.57
2023-03-27T06:31:12.561Z,2.67
2023-03-27T06:33:40.657Z,2.90
2023-03-27T06:36:08.592Z,2.90
2023-03-27T06:38:43.399Z,2.53
2023-03-27T06:41:10.579Z,2.63
2023-03-27T06:43:44.770Z,2.50
2023-03-27T06:46:12.522Z,3.03
2023-03-27T06:48:40.019Z,2.75
2023-03-27T06:51:14.474Z,2.97
2023-03-27T06:53:41.793Z,3.80
2023-03-27T06:58:42.820Z,3.90
2023-03-27T07:01:09.943Z,4.32
2023-03-27T07:03:43.508Z,3.85
2023-03-27T07:06:10.956Z,4.03
2023-03-27T07:08:45.476Z,3.15
2023-03-27T07:11:14.060Z,3.58
2023-03-27T07:13:41.645Z,3.28
2023-03-27T07:18:42.887Z,3.17
2023-03-27T07:23:43.419Z,3.35
2023-03-27T07:26:10.692Z,2.38
2023-03-27T07:28:51.515Z,2.60
2023-03-27T07:33:48.790Z,2.70
2023-03-27T07:36:22.500Z,2.25
2023-03-27T07:38:49.866Z,2.78
2023-03-27T07:41:23.416Z,2.65
2023-03-27T07:43:50.598Z,2.60
2023-03-27T07:46:17.742Z,3.22
2023-03-27T07:48:52.449Z,2.60
2023-03-27T07:51:19.614Z,2.50
2023-03-27T07:53:47.234Z,2.40
2023-03-27T07:56:21.431Z,2.30
2023-03-27T07:58:49.071Z,2.40
2023-03-27T08:01:22.690Z,2.15
2023-03-27T08:03:49.961Z,2.40
2023-03-27T08:06:17.184Z,2.10
2023-03-27T08:08:50.495Z,2.15
2023-03-27T08:11:29.574Z,1.40
2023-03-27T08:14:05.536Z,1.65
2023-03-27T08:16:32.867Z,2.10
2023-03-27T08:19:02.175Z,2.38
2023-03-27T08:21:42.424Z,1.55
2023-03-27T08:24:09.771Z,1.00
2023-03-27T08:26:43.448Z,1.75
2023-03-27T08:29:17.430Z,1.60
2023-03-27T08:31:51.546Z,1.35
2023-03-27T08:34:18.802Z,1.13
2023-03-27T08:36:46.466Z,1.50
2023-03-27T08:39:20.849Z,1.17
2023-03-27T08:41:55.233Z,1.02
2023-03-27T08:44:30.451Z,1.45
2023-03-27T08:46:57.658Z,1.10
2023-03-27T08:49:33.436Z,1.30
2023-03-27T08:52:02.369Z,1.02
2023-03-27T08:54:37.589Z,1.25
2023-03-27T08:57:16.074Z,1.75
2023-03-27T08:59:49.416Z,1.50
2023-03-27T09:02:42.448Z,1.23
2023-03-27T09:05:16.593Z,1.10
2023-03-27T09:07:50.350Z,1.15
2023-03-27T09:10:17.781Z,1.20
2023-03-27T09:12:52.359Z,1.20
2023-03-27T09:15:22.808Z,1.55
2023-03-27T09:17:58.388Z,1.08
2023-03-27T09:20:34.217Z,1.30
2023-03-27T09:23:19.165Z,1.35
2023-03-27T09:25:58.075Z,1.10
2023-03-27T09:28:42.380Z,1.27
2023-03-27T09:31:24.686Z,1.10
2023-03-27T09:33:59.361Z,1.15
2023-03-27T09:36:26.645Z,1.30
2023-03-27T09:39:05.371Z,1.10
2023-03-27T09:41:35.467Z,1.08
2023-03-27T09:44:20.364Z,1.10
2023-03-27T09:46:49.687Z,1.17
2023-03-27T09:49:27.441Z,1.10
2023-03-27T09:51:56.836Z,0.88
2023-03-27T09:54:31.377Z,1.00
2023-03-27T09:56:58.765Z,1.02
2023-03-27T09:59:37.540Z,1.38
2023-03-27T10:02:22.854Z,1.20
2023-03-27T10:05:23.362Z,0.93
2023-03-27T10:07:50.637Z,1.10
2023-03-27T10:10:19.793Z,1.10
2023-03-27T10:13:04.464Z,1.27
2023-03-27T10:15:38.870Z,1.10
2023-03-27T10:18:31.467Z,1.00
2023-03-27T10:20:59.708Z,1.10
2023-03-27T10:23:50.551Z,0.80
2023-03-27T10:26:25.474Z,0.95
2023-03-27T10:29:08.574Z,0.77
2023-03-27T10:31:38.048Z,1.10
2023-03-27T10:34:06.628Z,1.25
2023-03-27T10:36:44.545Z,1.40
2023-03-27T10:39:20.360Z,0.93
2023-03-27T10:41:48.499Z,2.10
2023-03-27T10:44:32.513Z,1.40
2023-03-27T10:46:59.779Z,1.20
2023-03-27T10:49:47.534Z,1.40
2023-03-27T10:52:19.024Z,1.60
2023-03-27T10:54:57.437Z,1.50
2023-03-27T10:57:34.215Z,1.10
2023-03-27T11:00:20.734Z,1.30
2023-03-27T11:03:06.782Z,1.25
2023-03-27T11:05:43.462Z,1.10
2023-03-27T11:08:28.409Z,1.33
2023-03-27T11:11:04.368Z,1.42
2023-03-27T11:13:43.469Z,1.40
2023-03-27T11:16:14.708Z,1.52
2023-03-27T11:18:52.600Z,1.60
2023-03-27T11:21:41.151Z,1.42
2023-03-27T11:24:24.586Z,1.60
2023-03-27T11:26:51.768Z,1.48
2023-03-27T11:29:38.454Z,1.55
2023-03-27T11:32:33.771Z,1.35
2023-03-27T11:35:15.572Z,1.17
2023-03-27T11:37:52.377Z,1.10
2023-03-27T11:40:35.471Z,1.35
2023-03-27T11:43:02.954Z,0.93
2023-03-27T11:48:03.931Z,1.15
2023-03-27T11:50:45.919Z,1.05
2023-03-27T11:53:16.317Z,1.02
2023-03-27T11:55:43.419Z,1.08
2023-03-27T11:58:17.514Z,1.08
2023-03-27T12:00:57.052Z,1.20
2023-03-27T12:03:36.254Z,1.10
2023-03-27T12:06:07.150Z,0.93
2023-03-27T12:09:07.453Z,0.90
2023-03-27T12:11:37.464Z,0.88
2023-03-27T12:14:40.457Z,1.15
2023-03-27T12:17:20.396Z,1.10
2023-03-27T12:20:06.935Z,1.05
2023-03-27T12:23:00.400Z,0.98
2023-03-27T12:25:35.990Z,0.80
2023-03-27T12:28:22.057Z,0.80
2023-03-27T12:31:17.228Z,0.90
2023-03-27T12:34:00.406Z,0.82
2023-03-27T12:36:32.380Z,1.10
2023-03-27T12:39:06.454Z,1.15
2023-03-27T12:41:38.435Z,1.13
2023-03-27T12:44:13.429Z,0.93
2023-03-27T12:46:41.972Z,1.00
2023-03-27T12:49:18.604Z,1.00
2023-03-27T12:51:51.980Z,1.50
2023-03-27T12:54:34.406Z,1.40
2023-03-27T12:57:20.836Z,1.50
2023-03-27T12:59:57.461Z,1.17
2023-03-27T13:02:48.027Z,1.70
2023-03-27T13:05:29.450Z,1.50
2023-03-27T13:07:56.751Z,1.50
2023-03-27T13:10:24.247Z,1.25
2023-03-27T13:15:32.991Z,1.58
2023-03-27T13:18:26.173Z,1.30
2023-03-27T13:20:53.421Z,1.35
2023-03-27T13:23:33.574Z,1.27
2023-03-27T13:26:00.816Z,1.42
2023-03-27T13:28:37.575Z,1.30
2023-03-27T13:31:05.951Z,1.23
2023-03-27T13:33:42.667Z,1.10
2023-03-27T13:36:17.704Z,1.58
2023-03-27T13:38:56.966Z,1.98
2023-03-27T13:41:44.327Z,1.35
2023-03-27T13:44:31.751Z,1.40
2023-03-27T13:47:08.951Z,1.42
2023-03-27T13:50:04.013Z,1.25
2023-03-27T13:52:49.568Z,1.58
2023-03-27T13:55:26.594Z,1.40
2023-03-27T13:57:56.854Z,1.20
2023-03-27T14:00:40.719Z,1.38
2023-03-27T14:03:12.122Z,1.35
2023-03-27T14:05:56.982Z,1.45
2023-03-27T14:08:31.620Z,1.40
2023-03-27T14:11:17.782Z,1.60
2023-03-27T14:13:54.430Z,1.30
2023-03-27T14:16:24.464Z,1.25
2023-03-27T14:19:04.433Z,1.20
2023-03-27T14:21:49.758Z,1.17
2023-03-27T14:24:34.605Z,1.13
2023-03-27T14:27:01.983Z,1.00
2023-03-27T14:29:48.446Z,1.05
2023-03-27T14:32:20.307Z,1.05
2023-03-27T14:35:00.447Z,1.05
2023-03-27T14:37:30.343Z,1.13
2023-03-27T14:40:04.430Z,1.20
2023-03-27T14:42:33.313Z,1.10
2023-03-27T14:45:16.494Z,1.17
2023-03-27T14:47:43.705Z,1.10
2023-03-27T14:50:14.152Z,1.10
2023-03-27T14:52:48.528Z,1.00
2023-03-27T14:55:19.045Z,1.17
2023-03-27T14:57:55.501Z,1.25
2023-03-27T15:00:24.513Z,1.15
2023-03-27T15:02:58.773Z,1.25
2023-03-27T15:05:26.069Z,1.00
2023-03-27T15:08:01.549Z,1.27
2023-03-27T15:10:30.080Z,1.33
2023-03-27T15:13:03.597Z,1.13
2023-03-27T15:15:30.946Z,1.40
2023-03-27T15:18:06.809Z,1.38
2023-03-27T15:20:37.311Z,1.58
2023-03-27T15:23:19.550Z,1.60
2023-03-27T15:26:02.452Z,1.30
2023-03-27T15:28:56.550Z,1.50
2023-03-27T15:31:31.821Z,1.30
2023-03-27T15:34:16.309Z,1.40
2023-03-27T15:36:53.457Z,1.30
2023-03-27T15:39:21.914Z,0.85
2023-03-27T15:41:57.464Z,2.10
2023-03-27T15:44:26.364Z,2.28
2023-03-27T15:47:05.588Z,1.98
2023-03-27T15:49:35.566Z,1.60
2023-03-27T15:52:29.460Z,1.50
2023-03-27T15:54:57.067Z,1.40
2023-03-27T16:00:08.508Z,2.17
2023-03-27T16:02:42.795Z,1.90
2023-03-27T16:05:16.730Z,1.27
2023-03-27T16:07:54.481Z,1.52
2023-03-27T16:10:32.816Z,1.20
2023-03-27T16:13:09.454Z,1.40
2023-03-27T16:15:37.884Z,1.20
2023-03-27T16:18:24.682Z,1.30
2023-03-27T16:20:52.015Z,1.30
2023-03-27T16:23:25.470Z,1.25
2023-03-27T16:25:52.947Z,1.85
2023-03-27T16:28:26.645Z,1.50
2023-03-27T16:31:00.605Z,1.45
2023-03-27T16:33:34.467Z,1.17
2023-03-27T16:36:08.560Z,1.58
2023-03-27T16:38:46.625Z,2.05
2023-03-27T16:41:15.299Z,1.70
2023-03-27T16:43:42.867Z,1.73
2023-03-27T16:48:43.992Z,1.83
2023-03-27T16:51:17.569Z,1.80
2023-03-27T16:53:44.768Z,1.80
2023-03-27T16:56:11.879Z,1.73
2023-03-27T16:58:46.624Z,1.73
2023-03-27T17:01:13.822Z,1.80
2023-03-27T17:03:47.621Z,1.30
2023-03-27T17:06:15.208Z,1.52
2023-03-27T17:08:42.379Z,1.67
2023-03-27T17:11:17.538Z,1.90
2023-03-27T17:13:45.129Z,1.80
2023-03-27T17:16:19.604Z,1.67
2023-03-27T17:18:46.780Z,1.90
2023-03-27T17:21:14.136Z,1.90
2023-03-27T17:23:49.660Z,1.90
2023-03-27T17:26:24.754Z,1.98
2023-03-27T17:28:58.556Z,1.88
2023-03-27T17:31:32.895Z,2.10
2023-03-27T17:34:07.640Z,1.83
2023-03-27T17:36:43.359Z,1.92
2023-03-27T17:39:21.612Z,2.63
2023-03-27T17:41:49.285Z,2.13
2023-03-27T17:44:16.439Z,3.00
2023-03-27T17:46:50.971Z,2.80
2023-03-27T17:49:18.530Z,3.45
2023-03-27T17:51:53.960Z,2.85
2023-03-27T17:54:21.103Z,2.20
2023-03-27T17:56:50.362Z,2.03
2023-03-27T17:59:24.538Z,2.20
2023-03-27T18:01:51.791Z,1.80
2023-03-27T18:04:25.677Z,1.60
2023-03-27T18:06:53.107Z,1.30
2023-03-27T18:09:20.192Z,1.33
2023-03-27T18:11:53.602Z,1.05
2023-03-27T18:14:20.818Z,0.93
2023-03-27T18:16:54.628Z,1.02
2023-03-27T18:19:24.070Z,1.23
2023-03-27T18:21:51.150Z,1.27
2023-03-27T18:24:24.571Z,1.08
2023-03-27T18:26:51.882Z,1.00
2023-03-27T18:29:32.976Z,0.90
2023-03-27T18:32:00.328Z,1.10
2023-03-27T18:37:01.575Z,2.42
2023-03-27T18:39:29.005Z,1.80
2023-03-27T18:42:05.741Z,3.95
2023-03-27T18:44:32.907Z,2.13
2023-03-27T18:47:00.420Z,2.13
2023-03-27T18:52:01.945Z,1.00
2023-03-27T18:54:29.092Z,1.15
2023-03-27T18:57:02.702Z,1.00
2023-03-27T18:59:29.927Z,0.90
2023-03-27T19:02:11.748Z,1.10
2023-03-27T19:04:39.027Z,0.88
2023-03-27T19:07:08.355Z,1.05
2023-03-27T19:09:49.606Z,1.33
2023-03-27T19:12:16.890Z,1.00
2023-03-27T19:14:44.041Z,1.10
2023-03-27T19:17:21.669Z,1.20
2023-03-27T19:19:48.913Z,1.05
2023-03-27T19:22:16.122Z,1.20
2023-03-27T19:24:49.816Z,1.10
2023-03-27T19:27:23.471Z,1.20
2023-03-27T19:30:03.702Z,1.30
2023-03-27T19:32:37.541Z,1.77
2023-03-27T19:35:05.025Z,1.48
2023-03-27T19:40:06.346Z,1.20
2023-03-27T19:42:34.074Z,1.20
2023-03-27T19:45:07.942Z,0.95
2023-03-27T19:47:35.277Z,1.45
2023-03-27T19:50:02.444Z,1.30
2023-03-27T19:52:36.552Z,1.48
2023-03-27T19:55:04.144Z,1.25
2023-03-27T19:57:37.675Z,1.02
2023-03-27T20:00:10.265Z,1.35
2023-03-27T20:02:43.712Z,1.17
2023-03-27T20:05:11.037Z,1.27
2023-03-27T20:07:38.185Z,1.30
2023-03-27T20:10:12.697Z,1.20
2023-03-27T20:12:39.871Z,1.00
2023-03-27T20:15:12.090Z,1.38
2023-03-27T20:17:46.654Z,1.40
2023-03-27T20:20:20.536Z,1.40
2023-03-27T20:22:57.117Z,1.48
2023-03-27T20:25:31.534Z,1.20
2023-03-27T20:27:58.879Z,1.35
2023-03-27T20:30:39.643Z,1.33
2023-03-27T20:33:09.169Z,1.20
2023-03-27T20:35:37.696Z,1.10
2023-03-27T20:38:12.780Z,1.23
2023-03-27T20:40:52.367Z,1.10
2023-03-27T20:43:29.670Z,1.15
2023-03-27T20:46:00.446Z,1.58
2023-03-27T20:48:54.166Z,2.88
2023-03-27T20:51:24.082Z,4.50
2023-03-27T20:54:02.655Z,4.50
2023-03-27T20:59:03.598Z,3.15
2023-03-27T21:01:34.274Z,2.60
2023-03-27T21:04:08.727Z,2.30
2023-03-27T21:06:35.796Z,1.73
2023-03-27T21:09:03.064Z,1.30
2023-03-27T21:11:36.601Z,1.60
2023-03-27T21:14:03.870Z,1.58
2023-03-27T21:16:37.703Z,1.77
2023-03-27T21:19:05.077Z,1.77
2023-03-27T21:21:33.172Z,1.50
2023-03-27T21:24:06.678Z,1.58
2023-03-27T21:26:34.307Z,1.20
2023-03-27T21:29:08.638Z,1.30
2023-03-27T21:31:43.530Z,1.88
2023-03-27T21:34:17.764Z,1.60
2023-03-27T21:36:45.122Z,1.52
2023-03-27T21:41:45.672Z,1.48
2023-03-27T21:44:12.918Z,1.05
2023-03-27T21:46:46.633Z,1.30
2023-03-27T21:49:13.846Z,1.33
2023-03-27T21:51:41.065Z,1.15
2023-03-27T21:54:14.622Z,1.50
2023-03-27T21:56:41.886Z,1.52
2023-03-27T21:59:15.645Z,1.30
2023-03-27T22:01:42.882Z,0.90
2023-03-27T22:04:10.407Z,1.30
2023-03-27T22:09:10.874Z,1.40
2023-03-27T22:11:44.659Z,1.92
2023-03-27T22:14:11.867Z,1.70
2023-03-27T22:16:39.206Z,1.60
2023-03-27T22:19:16.948Z,1.75
2023-03-27T22:21:44.147Z,1.30
2023-03-27T22:24:11.342Z,1.40
2023-03-27T22:26:46.849Z,1.50
2023-03-27T22:29:20.856Z,1.35
2023-03-27T22:32:01.684Z,1.35
2023-03-27T22:34:28.863Z,1.60
2023-03-27T22:37:02.876Z,1.45
2023-03-27T22:39:30.008Z,1.65
2023-03-27T22:41:57.354Z,1.45
2023-03-27T22:46:58.975Z,1.90
2023-03-27T22:49:26.373Z,1.50
2023-03-27T22:54:26.764Z,1.55
2023-03-27T22:57:01.937Z,1.63
2023-03-27T22:59:29.246Z,1.38
2023-03-27T23:01:56.785Z,1.85
2023-03-27T23:04:30.663Z,1.30
2023-03-27T23:07:00.604Z,1.33
2023-03-27T23:09:34.615Z,1.40
2023-03-27T23:12:01.850Z,1.33
2023-03-27T23:14:35.786Z,1.50
2023-03-27T23:17:03.417Z,1.38
2023-03-27T23:19:30.770Z,1.48
2023-03-27T23:22:04.643Z,1.63
2023-03-27T23:24:31.841Z,1.63
2023-03-27T23:27:05.672Z,1.50
2023-03-27T23:29:39.623Z,1.58
2023-03-27T23:32:19.622Z,1.40
2023-03-27T23:34:53.595Z,1.60
2023-03-27T23:37:27.633Z,1.80
2023-03-27T23:40:01.533Z,1.40
2023-03-27T23:42:29.369Z,1.20
2023-03-27T23:45:03.691Z,1.42
2023-03-27T23:47:30.948Z,1.50
2023-03-27T23:49:58.384Z,1.55
2023-03-27T23:52:32.882Z,1.42
2023-03-27T23:55:00.038Z,1.55
2023-03-27T23:57:27.184Z,1.80
